createdAt,value
2022-11-06T00:00:36.234Z,9.82
2022-11-06T00:03:05.325Z,7.65
2022-11-06T00:05:56.329Z,8.00
2022-11-06T00:08:34.603Z,5.95
2022-11-06T00:11:16.490Z,5.07
2022-11-06T00:13:44.137Z,10.03
2022-11-06T00:16:12.782Z,6.13
2022-11-06T00:18:39.718Z,4.40
2022-11-06T00:21:12.270Z,6.28
2022-11-06T00:23:43.066Z,7.35
2022-11-06T00:26:12.967Z,8.05
2022-11-06T00:28:40.747Z,6.63
2022-11-06T00:31:12.408Z,5.13
2022-11-06T00:33:40.397Z,5.82
2022-11-06T00:36:10.855Z,9.82
2022-11-06T00:38:40.839Z,6.40
2022-11-06T00:41:13.144Z,5.25
2022-11-06T00:43:40.689Z,8.38
2022-11-06T00:46:15.685Z,7.22
2022-11-06T00:48:44.701Z,10.43
2022-11-06T00:51:21.438Z,7.60
2022-11-06T00:53:49.109Z,7.38
2022-11-06T00:56:19.296Z,5.88
2022-11-06T00:58:47.924Z,5.43
2022-11-06T01:01:25.212Z,7.30
2022-11-06T01:03:57.720Z,6.40
2022-11-06T01:06:29.281Z,7.78
2022-11-06T01:08:57.993Z,4.32
2022-11-06T01:11:37.479Z,9.95
2022-11-06T01:14:18.527Z,5.90
2022-11-06T01:16:50.891Z,7.78
2022-11-06T01:19:20.331Z,6.70
2022-11-06T01:21:49.385Z,6.60
2022-11-06T01:24:28.141Z,5.87
2022-11-06T01:29:44.545Z,8.68
2022-11-06T01:32:11.735Z,7.07
2022-11-06T01:34:42.471Z,8.35
2022-11-06T01:37:14.242Z,10.15
2022-11-06T01:39:43.296Z,5.55
2022-11-06T01:42:13.320Z,8.02
2022-11-06T01:44:43.284Z,6.38
2022-11-06T01:47:27.559Z,8.88
2022-11-06T01:50:03.565Z,6.30
2022-11-06T01:52:32.979Z,12.27
2022-11-06T01:55:23.796Z,11.77
2022-11-06T01:58:01.174Z,7.50
2022-11-06T02:00:29.302Z,12.00
2022-11-06T02:03:01.224Z,9.02
2022-11-06T02:05:30.161Z,7.25
2022-11-06T02:07:59.227Z,7.30
2022-11-06T02:10:27.081Z,6.78
2022-11-06T02:13:30.617Z,7.38
2022-11-06T02:16:20.656Z,7.15
2022-11-06T02:19:03.636Z,8.77
2022-11-06T02:22:00.125Z,6.85
2022-11-06T02:24:50.282Z,9.75
2022-11-06T02:27:25.468Z,9.23
2022-11-06T02:30:12.233Z,9.02
2022-11-06T02:33:04.937Z,7.90
2022-11-06T02:35:43.686Z,6.82
2022-11-06T02:38:20.501Z,7.03
2022-11-06T02:40:52.465Z,8.10
2022-11-06T02:43:23.711Z,8.48
2022-11-06T02:46:15.922Z,8.60
2022-11-06T02:48:47.209Z,6.10
2022-11-06T02:51:18.497Z,8.00
2022-11-06T02:53:48.708Z,9.95
2022-11-06T02:56:20.057Z,5.53
2022-11-06T02:59:09.997Z,6.35
2022-11-06T03:01:47.352Z,7.53
2022-11-06T03:04:37.831Z,13.65
2022-11-06T03:07:23.080Z,6.22
2022-11-06T03:09:52.523Z,7.72
2022-11-06T03:12:39.957Z,13.50
2022-11-06T03:15:21.412Z,11.20
2022-11-06T03:17:56.515Z,9.13
2022-11-06T03:20:45.829Z,6.68
2022-11-06T03:23:44.747Z,9.13
2022-11-06T03:26:20.370Z,7.43
2022-11-06T03:29:00.441Z,7.18
2022-11-06T03:31:33.178Z,7.80
2022-11-06T03:34:07.710Z,7.75
2022-11-06T03:36:39.862Z,6.35
2022-11-06T03:39:15.526Z,6.90
2022-11-06T03:41:50.027Z,8.55
2022-11-06T03:44:24.925Z,8.07
2022-11-06T03:47:00.759Z,9.27
2022-11-06T03:49:39.178Z,11.57
2022-11-06T03:52:13.662Z,8.32
2022-11-06T03:55:08.374Z,8.65
2022-11-06T03:58:19.199Z,12.02
2022-11-06T04:00:48.220Z,6.28
2022-11-06T04:03:29.173Z,9.95
2022-11-06T04:06:09.799Z,10.70
2022-11-06T04:09:01.128Z,7.22
2022-11-06T04:11:53.337Z,8.23
2022-11-06T04:14:25.699Z,9.00
2022-11-06T04:16:56.781Z,10.82
2022-11-06T04:19:27.147Z,8.75
2022-11-06T04:21:54.339Z,7.88
2022-11-06T04:25:02.148Z,11.02
2022-11-06T04:27:53.406Z,8.50
2022-11-06T04:30:21.564Z,10.48
2022-11-06T04:33:00.948Z,10.05
2022-11-06T04:35:37.838Z,9.57
2022-11-06T04:38:32.721Z,6.80
2022-11-06T04:41:20.320Z,6.57
2022-11-06T04:44:03.484Z,9.77
2022-11-06T04:46:37.846Z,8.02
2022-11-06T04:49:06.409Z,8.15
2022-11-06T04:51:38.577Z,5.63
2022-11-06T04:54:11.788Z,9.60
2022-11-06T04:56:45.535Z,8.50
2022-11-06T04:59:18.132Z,6.18
2022-11-06T05:01:46.235Z,11.18
2022-11-06T05:04:14.345Z,7.95
2022-11-06T05:06:42.655Z,7.38
2022-11-06T05:09:10.534Z,9.65
2022-11-06T05:11:38.792Z,8.27
2022-11-06T05:14:06.353Z,9.00
2022-11-06T05:16:33.335Z,8.15
2022-11-06T05:19:00.142Z,9.20
2022-11-06T05:21:46.322Z,9.40
2022-11-06T05:24:13.137Z,8.00
2022-11-06T05:26:44.058Z,6.68
2022-11-06T05:29:12.832Z,5.80
2022-11-06T05:31:39.995Z,7.07
2022-11-06T05:34:07.061Z,8.30
2022-11-06T05:36:34.352Z,8.98
2022-11-06T05:39:01.420Z,8.63
2022-11-06T05:41:29.288Z,6.20
2022-11-06T05:43:57.780Z,6.80
2022-11-06T05:46:48.682Z,7.63
2022-11-06T05:51:43.001Z,6.10
2022-11-06T05:54:10.527Z,7.53
2022-11-06T05:56:38.519Z,8.20
2022-11-06T05:59:06.771Z,8.43
2022-11-06T06:01:39.960Z,8.77
2022-11-06T06:04:07.812Z,12.43
2022-11-06T06:06:35.054Z,4.72
2022-11-06T06:09:01.727Z,9.77
2022-11-06T06:11:31.228Z,7.97
2022-11-06T06:13:58.243Z,10.10
2022-11-06T06:16:26.101Z,9.43
2022-11-06T06:18:56.369Z,7.72
2022-11-06T06:21:26.596Z,8.43
2022-11-06T06:26:21.072Z,5.85
2022-11-06T06:28:49.673Z,8.57
2022-11-06T06:31:23.518Z,6.07
2022-11-06T06:33:51.207Z,6.50
2022-11-06T06:36:21.009Z,13.68
2022-11-06T06:38:48.404Z,6.53
2022-11-06T06:41:15.825Z,11.02
2022-11-06T06:43:52.751Z,8.30
2022-11-06T06:46:20.207Z,7.72
2022-11-06T06:48:47.165Z,9.13
2022-11-06T06:51:13.847Z,10.52
2022-11-06T06:53:40.783Z,6.72
2022-11-06T06:56:08.026Z,6.65
2022-11-06T06:58:34.645Z,8.38
2022-11-06T07:01:02.984Z,8.60
2022-11-06T07:03:33.161Z,7.88
2022-11-06T07:06:04.763Z,11.80
2022-11-06T07:08:32.265Z,9.02
2022-11-06T07:11:06.438Z,8.65
2022-11-06T07:13:36.068Z,7.65
2022-11-06T07:16:09.449Z,12.82
2022-11-06T07:18:37.387Z,8.60
2022-11-06T07:21:06.167Z,10.40
2022-11-06T07:23:35.021Z,9.30
2022-11-06T07:26:03.075Z,8.43
2022-11-06T07:28:30.518Z,10.43
2022-11-06T07:31:04.954Z,7.10
2022-11-06T07:33:31.827Z,5.22
2022-11-06T07:36:10.213Z,7.05
2022-11-06T07:38:44.372Z,11.02
2022-11-06T07:41:15.400Z,13.52
2022-11-06T07:43:45.444Z,8.70
2022-11-06T07:48:39.771Z,8.20
2022-11-06T07:51:10.030Z,8.93
2022-11-06T07:53:37.244Z,7.10
2022-11-06T07:56:04.252Z,10.57
2022-11-06T07:58:31.259Z,6.90
2022-11-06T08:00:58.741Z,8.00
2022-11-06T08:03:27.118Z,8.38
2022-11-06T08:05:53.806Z,6.70
2022-11-06T08:08:20.503Z,8.60
2022-11-06T08:10:47.741Z,6.88
2022-11-06T08:13:16.710Z,8.32
2022-11-06T08:15:44.224Z,9.30
2022-11-06T08:18:12.116Z,6.75
2022-11-06T08:20:39.447Z,9.07
2022-11-06T08:23:08.568Z,6.10
2022-11-06T08:25:35.388Z,10.33
2022-11-06T08:28:03.331Z,8.10
2022-11-06T08:30:30.748Z,8.40
2022-11-06T08:33:07.249Z,9.77
2022-11-06T08:35:34.946Z,9.55
2022-11-06T08:38:02.418Z,10.48
2022-11-06T08:40:31.167Z,7.50
2022-11-06T08:43:06.976Z,9.97
2022-11-06T08:45:38.076Z,8.18
2022-11-06T08:48:05.333Z,11.50
2022-11-06T08:50:33.177Z,10.52
2022-11-06T08:53:04.218Z,14.32
2022-11-06T08:55:31.433Z,9.95
2022-11-06T08:57:58.057Z,12.52
2022-11-06T09:00:24.788Z,9.18
2022-11-06T09:02:51.725Z,9.07
2022-11-06T09:05:18.462Z,7.80
2022-11-06T09:07:45.029Z,5.47
2022-11-06T09:10:11.625Z,7.45
2022-11-06T09:12:38.254Z,7.82
2022-11-06T09:15:05.433Z,9.40
2022-11-06T09:17:32.111Z,9.63
2022-11-06T09:19:58.854Z,9.73
2022-11-06T09:22:25.468Z,11.48
2022-11-06T09:25:04.972Z,7.93
2022-11-06T09:27:32.158Z,8.18
2022-11-06T09:29:58.844Z,8.18
2022-11-06T09:32:25.561Z,10.90
2022-11-06T09:34:52.529Z,11.40
2022-11-06T09:37:19.278Z,9.63
2022-11-06T09:39:45.909Z,8.38
2022-11-06T09:42:45.839Z,12.63
2022-11-06T09:45:22.857Z,10.93
2022-11-06T09:47:55.661Z,7.75
2022-11-06T09:50:28.690Z,7.13
2022-11-06T09:53:07.573Z,10.85
2022-11-06T09:55:39.864Z,8.13
2022-11-06T09:58:21.506Z,8.65
2022-11-06T10:00:51.754Z,7.65
2022-11-06T10:03:26.570Z,8.23
2022-11-06T10:05:53.891Z,9.35
2022-11-06T10:08:28.894Z,9.57
2022-11-06T10:11:22.806Z,11.68
2022-11-06T10:14:18.835Z,10.75
2022-11-06T10:17:07.030Z,6.50
2022-11-06T10:20:07.121Z,8.18
2022-11-06T10:22:33.741Z,11.85
2022-11-06T10:25:20.375Z,10.75
2022-11-06T10:28:03.684Z,11.15
2022-11-06T10:30:50.450Z,9.48
2022-11-06T10:33:27.263Z,8.23
2022-11-06T10:36:13.224Z,9.38
2022-11-06T10:38:44.592Z,8.07
2022-11-06T10:41:24.744Z,9.77
2022-11-06T10:43:55.045Z,9.45
2022-11-06T10:46:34.990Z,6.25
2022-11-06T10:49:21.606Z,8.85
2022-11-06T10:52:07.092Z,11.90
2022-11-06T10:54:52.211Z,9.60
2022-11-06T10:57:32.496Z,12.43
2022-11-06T10:59:59.368Z,12.45
2022-11-06T11:02:37.594Z,8.32
2022-11-06T11:05:13.197Z,11.07
2022-11-06T11:07:40.797Z,8.70
2022-11-06T11:10:27.828Z,10.23
2022-11-06T11:12:57.157Z,13.63
2022-11-06T11:15:26.184Z,10.75
2022-11-06T11:18:18.001Z,10.93
2022-11-06T11:20:49.158Z,9.18
2022-11-06T11:23:25.037Z,7.60
2022-11-06T11:25:54.038Z,8.02
2022-11-06T11:28:25.437Z,10.38
2022-11-06T11:30:55.072Z,11.13
2022-11-06T11:33:25.280Z,11.85
2022-11-06T11:35:53.874Z,9.57
2022-11-06T11:38:22.704Z,10.43
2022-11-06T11:40:49.971Z,9.40
2022-11-06T11:43:19.616Z,9.55
2022-11-06T11:46:04.615Z,8.52
2022-11-06T11:48:48.904Z,10.43
2022-11-06T11:51:29.909Z,9.98
2022-11-06T11:54:02.330Z,8.05
2022-11-06T11:56:50.001Z,11.07
2022-11-06T11:59:21.037Z,10.65
2022-11-06T12:01:49.000Z,8.75
2022-11-06T12:04:30.470Z,7.95
2022-11-06T12:07:00.848Z,9.07
2022-11-06T12:09:31.928Z,7.85
2022-11-06T12:12:01.016Z,10.38
2022-11-06T12:14:31.573Z,11.27
2022-11-06T12:17:13.794Z,14.48
2022-11-06T12:19:45.051Z,6.70
2022-11-06T12:22:19.195Z,8.32
2022-11-06T12:25:00.918Z,11.20
2022-11-06T12:27:41.516Z,11.93
2022-11-06T12:30:13.819Z,11.90
2022-11-06T12:33:01.577Z,9.70
2022-11-06T12:35:31.450Z,9.95
2022-11-06T12:38:17.206Z,10.73
2022-11-06T12:40:50.547Z,9.23
2022-11-06T12:43:26.249Z,10.32
2022-11-06T12:46:17.567Z,7.25
2022-11-06T12:49:05.704Z,8.48
2022-11-06T12:51:57.021Z,10.75
2022-11-06T12:54:44.741Z,9.15
2022-11-06T12:57:36.374Z,7.53
2022-11-06T13:00:17.567Z,8.57
2022-11-06T13:02:58.743Z,9.10
2022-11-06T13:05:39.017Z,11.68
2022-11-06T13:08:44.101Z,9.45
2022-11-06T13:11:38.719Z,7.70
2022-11-06T13:14:31.975Z,8.20
2022-11-06T13:17:14.194Z,7.43
2022-11-06T13:19:50.032Z,13.95
2022-11-06T13:22:35.611Z,13.93
2022-11-06T13:25:15.810Z,19.35
2022-11-06T13:28:00.809Z,21.17
2022-11-06T13:30:29.461Z,25.50
2022-11-06T13:33:25.185Z,20.20
2022-11-06T13:35:52.496Z,20.23
2022-11-06T13:38:33.845Z,18.75
2022-11-06T13:41:11.680Z,15.00
2022-11-06T13:43:45.888Z,16.73
2022-11-06T13:46:32.132Z,13.52
2022-11-06T13:49:10.577Z,10.40
2022-11-06T13:51:43.324Z,8.40
2022-11-06T13:54:36.295Z,9.55
2022-11-06T13:57:22.346Z,10.85
2022-11-06T14:00:01.244Z,10.77
2022-11-06T14:02:58.955Z,6.15
2022-11-06T14:05:31.764Z,6.35
2022-11-06T14:08:02.594Z,10.88
2022-11-06T14:10:35.665Z,11.32
2022-11-06T14:13:05.389Z,13.07
2022-11-06T14:15:37.812Z,10.93
2022-11-06T14:18:05.744Z,13.50
2022-11-06T14:20:34.859Z,10.55
2022-11-06T14:23:29.622Z,13.80
2022-11-06T14:26:13.284Z,13.65
2022-11-06T14:28:43.176Z,12.52
2022-11-06T14:31:13.984Z,11.93
2022-11-06T14:33:40.884Z,12.65
2022-11-06T14:36:26.587Z,14.05
2022-11-06T14:38:54.047Z,12.20
2022-11-06T14:41:42.136Z,8.63
2022-11-06T14:44:17.918Z,8.75
2022-11-06T14:46:55.568Z,11.50
2022-11-06T14:49:27.707Z,10.10
2022-11-06T14:52:04.530Z,11.85
2022-11-06T14:54:35.586Z,8.40
2022-11-06T14:57:03.111Z,8.55
2022-11-06T14:59:34.021Z,10.77
2022-11-06T15:02:13.958Z,13.85
2022-11-06T15:08:04.031Z,13.32
2022-11-06T15:10:43.438Z,9.25
2022-11-06T15:13:16.378Z,8.38
2022-11-06T15:15:45.900Z,11.82
2022-11-06T15:18:20.781Z,11.25
2022-11-06T15:20:53.917Z,13.48
2022-11-06T15:23:25.358Z,9.50
2022-11-06T15:26:00.690Z,10.13
2022-11-06T15:28:33.536Z,10.57
2022-11-06T15:31:05.535Z,11.82
2022-11-06T15:33:51.575Z,11.80
2022-11-06T15:36:22.100Z,9.10
2022-11-06T15:38:48.820Z,11.13
2022-11-06T15:41:20.140Z,12.55
2022-11-06T15:43:50.240Z,12.20
2022-11-06T15:46:19.571Z,8.57
2022-11-06T15:48:46.437Z,8.77
2022-11-06T15:51:25.572Z,8.15
2022-11-06T15:53:52.770Z,12.20
2022-11-06T15:56:24.518Z,15.35
2022-11-06T15:59:10.199Z,21.50
2022-11-06T16:01:37.218Z,20.85
2022-11-06T16:04:15.884Z,19.38
2022-11-06T16:06:44.372Z,13.05
2022-11-06T16:09:20.456Z,15.85
2022-11-06T16:11:50.258Z,13.38
2022-11-06T16:14:20.091Z,15.98
2022-11-06T16:16:55.544Z,15.65
2022-11-06T16:19:28.832Z,14.60
2022-11-06T16:22:03.471Z,12.73
2022-11-06T16:24:34.380Z,14.55
2022-11-06T16:27:06.693Z,19.55
2022-11-06T16:29:33.795Z,12.45
2022-11-06T16:32:07.051Z,27.35
2022-11-06T16:34:37.835Z,21.02
2022-11-06T16:37:29.793Z,18.02
2022-11-06T16:39:59.408Z,25.70
2022-11-06T16:42:35.765Z,59.83
2022-11-06T16:45:22.153Z,69.75
2022-11-06T16:48:07.161Z,89.55
2022-11-06T16:50:55.471Z,74.35
2022-11-06T16:53:26.201Z,95.30
2022-11-06T16:55:55.695Z,86.13
2022-11-06T16:58:23.272Z,89.45
2022-11-06T17:01:05.781Z,80.93
2022-11-06T17:03:47.311Z,66.20
2022-11-06T17:06:24.625Z,63.72
2022-11-06T17:08:58.732Z,62.45
2022-11-06T17:11:25.646Z,40.70
2022-11-06T17:13:52.794Z,33.45
2022-11-06T17:16:25.570Z,26.88
2022-11-06T17:18:52.669Z,20.30
2022-11-06T17:21:25.603Z,17.42
2022-11-06T17:23:52.963Z,13.63
2022-11-06T17:26:29.083Z,12.98
2022-11-06T17:28:57.749Z,16.58
2022-11-06T17:31:25.360Z,11.63
2022-11-06T17:33:53.010Z,13.93
2022-11-06T17:36:24.997Z,14.77
2022-11-06T17:38:52.697Z,12.63
2022-11-06T17:41:32.449Z,10.60
2022-11-06T17:44:01.327Z,12.73
2022-11-06T17:46:30.070Z,10.85
2022-11-06T17:48:57.010Z,18.20
2022-11-06T17:51:42.680Z,15.52
2022-11-06T17:54:10.022Z,17.63
2022-11-06T17:56:38.076Z,17.27
2022-11-06T17:59:05.309Z,17.90
2022-11-06T18:01:32.445Z,19.73
2022-11-06T18:03:59.217Z,19.65
2022-11-06T18:06:26.094Z,15.05
2022-11-06T18:09:00.553Z,16.70
2022-11-06T18:11:28.300Z,14.20
2022-11-06T18:13:56.284Z,16.50
2022-11-06T18:16:27.414Z,17.20
2022-11-06T18:18:55.199Z,16.42
2022-11-06T18:21:22.019Z,20.75
2022-11-06T18:23:48.732Z,16.25
2022-11-06T18:26:15.975Z,15.77
2022-11-06T18:28:42.617Z,16.95
2022-11-06T18:31:09.376Z,13.77
2022-11-06T18:33:36.164Z,12.88
2022-11-06T18:36:05.189Z,16.92
2022-11-06T18:38:31.895Z,16.63
2022-11-06T18:40:58.936Z,16.63
2022-11-06T18:43:25.702Z,15.07
2022-11-06T18:45:52.479Z,18.02
2022-11-06T18:48:21.691Z,17.10
2022-11-06T18:50:48.775Z,14.77
2022-11-06T18:53:15.484Z,18.13
2022-11-06T18:55:46.125Z,17.02
2022-11-06T18:58:13.405Z,17.00
2022-11-06T19:00:40.311Z,13.90
2022-11-06T19:03:07.089Z,14.45
2022-11-06T19:05:34.410Z,13.23
2022-11-06T19:08:02.531Z,14.68
2022-11-06T19:10:31.316Z,17.75
2022-11-06T19:12:59.574Z,20.92
2022-11-06T19:15:26.610Z,21.83
2022-11-06T19:17:54.700Z,20.80
2022-11-06T19:20:22.504Z,17.38
2022-11-06T19:22:51.133Z,20.77
2022-11-06T19:25:19.128Z,19.92
2022-11-06T19:27:46.603Z,19.38
2022-11-06T19:30:14.772Z,17.85
2022-11-06T19:32:41.700Z,16.75
2022-11-06T19:35:08.740Z,13.35
2022-11-06T19:37:36.204Z,18.88
2022-11-06T19:40:06.183Z,19.35
2022-11-06T19:42:33.406Z,18.48
2022-11-06T19:45:00.392Z,19.95
2022-11-06T19:47:28.173Z,16.70
2022-11-06T19:49:54.879Z,17.42
2022-11-06T19:52:43.789Z,20.10
2022-11-06T19:55:26.118Z,16.77
2022-11-06T19:57:57.670Z,23.23
2022-11-06T20:02:51.147Z,18.23
2022-11-06T20:05:18.122Z,19.23
2022-11-06T20:07:44.953Z,19.85
2022-11-06T20:10:11.633Z,26.02
2022-11-06T20:12:38.429Z,26.52
2022-11-06T20:15:05.752Z,28.27
2022-11-06T20:17:32.346Z,23.20
2022-11-06T20:19:59.080Z,24.20
2022-11-06T20:22:25.747Z,28.48
2022-11-06T20:24:52.429Z,20.27
2022-11-06T20:27:19.104Z,30.83
2022-11-06T20:29:45.776Z,33.13
2022-11-06T20:32:18.592Z,31.90
2022-11-06T20:34:46.095Z,26.85
2022-11-06T20:37:12.849Z,24.42
2022-11-06T20:39:41.571Z,25.70
2022-11-06T20:42:08.715Z,25.15
2022-11-06T20:44:35.356Z,19.83
2022-11-06T20:47:02.018Z,18.48
2022-11-06T20:49:28.742Z,21.73
2022-11-06T20:52:13.090Z,20.27
2022-11-06T20:54:45.392Z,21.02
2022-11-06T20:57:14.801Z,15.60
2022-11-06T20:59:41.634Z,18.55
2022-11-06T21:02:10.897Z,21.27
2022-11-06T21:04:37.874Z,22.95
2022-11-06T21:07:05.117Z,20.63
2022-11-06T21:09:31.776Z,17.85
2022-11-06T21:11:58.495Z,19.35
2022-11-06T21:14:25.450Z,16.13
2022-11-06T21:16:53.221Z,16.05
2022-11-06T21:19:19.971Z,19.05
2022-11-06T21:21:47.082Z,18.45
2022-11-06T21:24:13.898Z,19.95
2022-11-06T21:26:40.714Z,15.38
2022-11-06T21:29:10.831Z,16.17
2022-11-06T21:31:45.656Z,16.77
2022-11-06T21:34:15.360Z,17.33
2022-11-06T21:36:42.025Z,14.60
2022-11-06T21:39:12.369Z,19.80
2022-11-06T21:41:39.254Z,16.20
2022-11-06T21:44:07.131Z,18.73
2022-11-06T21:46:34.191Z,17.48
2022-11-06T21:49:00.828Z,22.35
2022-11-06T21:51:30.227Z,14.57
2022-11-06T21:54:16.293Z,22.67
2022-11-06T21:56:44.443Z,15.57
2022-11-06T21:59:13.727Z,18.15
2022-11-06T22:01:41.486Z,21.70
2022-11-06T22:04:08.773Z,18.40
2022-11-06T22:06:35.897Z,20.35
2022-11-06T22:09:03.678Z,12.57
2022-11-06T22:11:37.524Z,22.95
2022-11-06T22:14:07.608Z,16.88
2022-11-06T22:19:02.799Z,14.75
2022-11-06T22:21:30.816Z,13.43
2022-11-06T22:23:57.559Z,13.10
2022-11-06T22:26:29.989Z,13.20
2022-11-06T22:29:02.211Z,13.93
2022-11-06T22:31:29.721Z,12.27
2022-11-06T22:33:57.110Z,14.05
2022-11-06T22:36:24.763Z,15.55
2022-11-06T22:38:52.274Z,15.68
2022-11-06T22:41:22.873Z,14.35
2022-11-06T22:43:50.074Z,17.27
2022-11-06T22:46:20.193Z,14.73
2022-11-06T22:48:47.333Z,18.98
2022-11-06T22:51:17.146Z,14.77
2022-11-06T22:53:44.276Z,15.00
2022-11-06T22:56:14.833Z,16.65
2022-11-06T22:58:41.930Z,18.55
2022-11-06T23:01:09.789Z,16.80
2022-11-06T23:03:36.509Z,13.98
2022-11-06T23:06:05.829Z,16.33
2022-11-06T23:08:32.554Z,14.30
2022-11-06T23:10:59.786Z,19.60
2022-11-06T23:13:26.499Z,17.55
2022-11-06T23:16:02.426Z,17.02
2022-11-06T23:18:29.231Z,18.77
2022-11-06T23:20:55.907Z,19.30
2022-11-06T23:23:22.588Z,14.25
2022-11-06T23:25:49.229Z,18.05
2022-11-06T23:28:16.049Z,20.17
2022-11-06T23:30:42.874Z,18.42
2022-11-06T23:33:09.663Z,20.38
2022-11-06T23:35:36.292Z,18.88
2022-11-06T23:38:03.005Z,21.95
2022-11-06T23:40:29.967Z,19.92
2022-11-06T23:42:57.615Z,23.40
2022-11-06T23:45:42.725Z,25.75
2022-11-06T23:48:14.517Z,18.77
2022-11-06T23:50:46.976Z,17.35
2022-11-06T23:53:16.030Z,16.17
2022-11-06T23:55:43.049Z,12.90
2022-11-06T23:58:09.812Z,14.82
